createdAt,value
2023-02-28T00:01:16.631Z,101378.69
2023-02-28T00:03:44.792Z,101374.75
2023-02-28T00:06:13.032Z,101383.78
2023-02-28T00:08:41.633Z,101393.06
2023-02-28T00:11:12.215Z,101402.28
2023-02-28T00:13:43.487Z,101400.31
2023-02-28T00:16:14.276Z,101392.50
2023-02-28T00:18:43.927Z,101400.09
2023-02-28T00:21:12.203Z,101407.00
2023-02-28T00:23:40.614Z,101403.09
2023-02-28T00:26:08.766Z,101390.41
2023-02-28T00:28:36.940Z,101381.06
2023-02-28T00:31:05.777Z,101389.22
2023-02-28T00:33:34.100Z,101392.63
2023-02-28T00:36:08.712Z,101385.09
2023-02-28T00:38:36.988Z,101374.47
2023-02-28T00:41:06.124Z,101382.44
2023-02-28T00:43:35.353Z,101378.25
2023-02-28T00:46:03.833Z,101383.66
2023-02-28T00:48:31.974Z,101369.44
2023-02-28T00:51:00.238Z,101377.75
2023-02-28T00:53:30.316Z,101379.56
2023-02-28T00:55:58.375Z,101389.78
2023-02-28T00:58:27.054Z,101404.38
2023-02-28T01:00:55.822Z,101387.81
2023-02-28T01:03:24.671Z,101374.88
2023-02-28T01:05:54.161Z,101381.50
2023-02-28T01:08:22.445Z,101383.91
2023-02-28T01:10:52.144Z,101382.00
2023-02-28T01:13:20.836Z,101403.25
2023-02-28T01:15:53.151Z,101401.53
2023-02-28T01:18:22.114Z,101420.91
2023-02-28T01:20:52.786Z,101422.88
2023-02-28T01:23:22.816Z,101437.47
2023-02-28T01:25:52.769Z,101431.34
2023-02-28T01:28:21.207Z,101425.72
2023-02-28T01:30:53.100Z,101428.53
2023-02-28T01:33:21.678Z,101433.06
2023-02-28T01:35:49.795Z,101427.94
2023-02-28T01:38:22.121Z,101427.00
2023-02-28T01:40:52.867Z,101430.34
2023-02-28T01:43:25.283Z,101423.81
2023-02-28T01:45:54.386Z,101415.38
2023-02-28T01:48:27.243Z,101419.22
2023-02-28T01:50:58.397Z,101414.47
2023-02-28T01:53:39.456Z,101411.50
2023-02-28T01:56:11.575Z,101422.38
2023-02-28T01:58:40.116Z,101430.25
2023-02-28T02:01:08.142Z,101421.44
2023-02-28T02:03:38.319Z,101424.50
2023-02-28T02:06:06.932Z,101446.19
2023-02-28T02:08:35.117Z,101439.50
2023-02-28T02:11:04.610Z,101431.25
2023-02-28T02:13:48.760Z,101419.25
2023-02-28T02:16:30.435Z,101408.16
2023-02-28T02:19:06.513Z,101422.03
2023-02-28T02:21:57.494Z,101438.56
2023-02-28T02:24:48.668Z,101458.28
2023-02-28T02:27:24.658Z,101450.50
2023-02-28T02:30:18.681Z,101445.94
2023-02-28T02:33:08.127Z,101430.00
2023-02-28T02:35:47.053Z,101428.06
2023-02-28T02:38:22.245Z,101411.06
2023-02-28T02:40:58.113Z,101438.22
2023-02-28T02:43:33.704Z,101450.75
2023-02-28T02:46:07.598Z,101429.38
2023-02-28T02:48:39.825Z,101441.28
2023-02-28T02:51:15.829Z,101440.47
2023-02-28T02:53:50.360Z,101440.94
2023-02-28T02:56:22.233Z,101444.00
2023-02-28T02:58:52.800Z,101457.13
2023-02-28T03:01:29.418Z,101455.75
2023-02-28T03:03:59.897Z,101443.03
2023-02-28T03:06:29.878Z,101431.53
2023-02-28T03:08:58.104Z,101449.97
2023-02-28T03:11:26.223Z,101440.94
2023-02-28T03:14:03.624Z,101453.41
2023-02-28T03:16:38.788Z,101451.41
2023-02-28T03:19:26.026Z,101471.22
2023-02-28T03:22:10.511Z,101493.38
2023-02-28T03:24:47.804Z,101504.78
2023-02-28T03:27:25.755Z,101483.13
2023-02-28T03:30:02.827Z,101479.84
2023-02-28T03:32:35.596Z,101460.59
2023-02-28T03:35:10.735Z,101451.72
2023-02-28T03:37:44.686Z,101458.97
2023-02-28T03:40:16.386Z,101449.25
2023-02-28T03:42:48.223Z,101466.50
2023-02-28T03:45:20.773Z,101461.06
2023-02-28T03:47:53.522Z,101467.88
2023-02-28T03:50:26.682Z,101478.75
2023-02-28T03:53:02.388Z,101476.66
2023-02-28T03:55:36.315Z,101482.75
2023-02-28T03:58:10.856Z,101488.66
2023-02-28T04:00:43.334Z,101501.75
2023-02-28T04:03:11.569Z,101504.66
2023-02-28T04:05:52.206Z,101502.06
2023-02-28T04:08:21.914Z,101489.56
2023-02-28T04:10:56.540Z,101479.06
2023-02-28T04:13:24.627Z,101474.56
2023-02-28T04:15:52.695Z,101468.44
2023-02-28T04:18:20.799Z,101467.78
2023-02-28T04:20:48.881Z,101463.97
2023-02-28T04:23:16.964Z,101480.53
2023-02-28T04:25:46.465Z,101486.81
2023-02-28T04:28:14.514Z,101471.69
2023-02-28T04:30:42.573Z,101464.50
2023-02-28T04:33:10.723Z,101457.81
2023-02-28T04:35:38.859Z,101467.66
2023-02-28T04:38:07.005Z,101479.78
2023-02-28T04:40:35.050Z,101463.97
2023-02-28T04:43:04.813Z,101473.78
2023-02-28T04:45:34.967Z,101465.47
2023-02-28T04:48:03.164Z,101440.50
2023-02-28T04:50:31.428Z,101461.84
2023-02-28T04:52:59.792Z,101457.03
2023-02-28T04:55:27.899Z,101452.84
2023-02-28T04:57:55.954Z,101453.66
2023-02-28T05:00:26.191Z,101453.59
2023-02-28T05:02:54.309Z,101465.00
2023-02-28T05:05:22.434Z,101468.47
2023-02-28T05:07:50.612Z,101465.53
2023-02-28T05:10:30.551Z,101489.72
2023-02-28T05:12:58.688Z,101482.81
2023-02-28T05:15:28.142Z,101485.19
2023-02-28T05:17:56.291Z,101473.84
2023-02-28T05:20:24.367Z,101463.56
2023-02-28T05:22:53.783Z,101466.63
2023-02-28T05:25:23.787Z,101488.84
2023-02-28T05:27:51.919Z,101497.75
2023-02-28T05:30:20.170Z,101508.63
2023-02-28T05:32:53.353Z,101495.00
2023-02-28T05:35:21.501Z,101489.38
2023-02-28T05:37:49.531Z,101496.03
2023-02-28T05:40:18.299Z,101502.06
2023-02-28T05:42:46.395Z,101502.84
2023-02-28T05:45:15.795Z,101520.28
2023-02-28T05:47:44.027Z,101542.44
2023-02-28T05:50:14.058Z,101558.44
2023-02-28T05:52:42.160Z,101579.41
2023-02-28T05:55:11.305Z,101606.56
2023-02-28T05:57:39.675Z,101602.28
2023-02-28T06:00:09.221Z,101601.94
2023-02-28T06:02:37.345Z,101596.19
2023-02-28T06:05:05.732Z,101566.22
2023-02-28T06:07:35.210Z,101570.81
2023-02-28T06:10:03.328Z,101571.22
2023-02-28T06:12:31.467Z,101555.59
2023-02-28T06:14:59.553Z,101557.38
2023-02-28T06:17:27.829Z,101578.13
2023-02-28T06:19:56.025Z,101581.03
2023-02-28T06:22:24.216Z,101581.94
2023-02-28T06:24:54.043Z,101591.31
2023-02-28T06:27:23.205Z,101595.91
2023-02-28T06:29:51.593Z,101590.94
2023-02-28T06:32:19.792Z,101584.25
2023-02-28T06:34:48.143Z,101599.13
2023-02-28T06:37:16.282Z,101593.13
2023-02-28T06:39:44.536Z,101596.81
2023-02-28T06:42:14.064Z,101601.66
2023-02-28T06:44:44.019Z,101604.06
2023-02-28T06:47:12.054Z,101597.97
2023-02-28T06:49:40.249Z,101599.47
2023-02-28T06:52:08.333Z,101585.72
2023-02-28T06:54:36.379Z,101586.75
2023-02-28T06:57:04.992Z,101591.41
2023-02-28T06:59:36.161Z,101589.53
2023-02-28T07:02:04.245Z,101585.16
2023-02-28T07:04:32.355Z,101599.38
2023-02-28T07:07:01.070Z,101595.31
2023-02-28T07:09:31.156Z,101580.66
2023-02-28T07:11:59.316Z,101584.47
2023-02-28T07:14:27.537Z,101598.53
2023-02-28T07:16:57.057Z,101618.03
2023-02-28T07:19:25.121Z,101611.47
2023-02-28T07:21:53.270Z,101609.50
2023-02-28T07:24:21.409Z,101609.28
2023-02-28T07:26:49.493Z,101589.31
2023-02-28T07:29:17.592Z,101595.53
2023-02-28T07:31:45.702Z,101600.38
2023-02-28T07:34:15.354Z,101593.66
2023-02-28T07:36:43.484Z,101604.75
2023-02-28T07:39:11.719Z,101583.31
2023-02-28T07:41:44.656Z,101595.16
2023-02-28T07:44:13.418Z,101603.03
2023-02-28T07:46:41.614Z,101593.56
2023-02-28T07:49:09.702Z,101584.50
2023-02-28T07:51:39.273Z,101586.16
2023-02-28T07:54:07.744Z,101594.06
2023-02-28T07:56:35.976Z,101592.97
2023-02-28T07:59:04.244Z,101596.66
2023-02-28T08:01:32.863Z,101584.50
2023-02-28T08:04:01.447Z,101603.41
2023-02-28T08:06:31.146Z,101608.53
2023-02-28T08:09:00.618Z,101609.66
2023-02-28T08:11:29.024Z,101626.75
2023-02-28T08:13:57.359Z,101632.31
2023-02-28T08:16:25.749Z,101637.97
2023-02-28T08:18:54.883Z,101634.25
2023-02-28T08:21:23.662Z,101634.63
2023-02-28T08:23:53.441Z,101630.19
2023-02-28T08:26:23.407Z,101621.47
2023-02-28T08:28:51.588Z,101624.28
2023-02-28T08:31:20.630Z,101622.50
2023-02-28T08:33:49.766Z,101612.66
2023-02-28T08:36:17.997Z,101616.84
2023-02-28T08:38:47.000Z,101605.97
2023-02-28T08:41:15.632Z,101612.72
2023-02-28T08:43:45.177Z,101604.56
2023-02-28T08:46:14.874Z,101611.03
2023-02-28T08:48:43.119Z,101608.00
2023-02-28T08:51:12.643Z,101615.25
2023-02-28T08:53:42.174Z,101607.75
2023-02-28T08:56:11.983Z,101612.00
2023-02-28T08:58:40.515Z,101603.47
2023-02-28T09:01:15.944Z,101623.28
2023-02-28T09:03:44.863Z,101618.56
2023-02-28T09:06:13.599Z,101626.13
2023-02-28T09:08:42.189Z,101602.34
2023-02-28T09:11:10.673Z,101605.06
2023-02-28T09:13:39.233Z,101607.75
2023-02-28T09:16:10.079Z,101603.94
2023-02-28T09:18:40.340Z,101616.78
2023-02-28T09:21:09.657Z,101605.66
2023-02-28T09:23:39.150Z,101603.31
2023-02-28T09:26:07.747Z,101597.53
2023-02-28T09:28:36.097Z,101607.19
2023-02-28T09:31:05.985Z,101597.19
2023-02-28T09:33:35.342Z,101602.91
2023-02-28T09:36:05.936Z,101599.44
2023-02-28T09:38:33.964Z,101604.19
2023-02-28T09:41:05.900Z,101612.25
2023-02-28T09:43:40.149Z,101618.06
2023-02-28T09:46:14.619Z,101606.69
2023-02-28T09:48:47.877Z,101614.53
2023-02-28T09:51:32.519Z,101625.56
2023-02-28T09:54:02.113Z,101631.50
2023-02-28T09:56:38.357Z,101640.50
2023-02-28T09:59:17.146Z,101639.53
2023-02-28T10:01:55.322Z,101637.97
2023-02-28T10:04:39.425Z,101648.66
2023-02-28T10:07:23.982Z,101640.28
2023-02-28T10:09:55.533Z,101647.06
2023-02-28T10:12:24.002Z,101641.00
2023-02-28T10:14:54.937Z,101643.38
2023-02-28T10:17:26.153Z,101626.53
2023-02-28T10:20:02.163Z,101631.50
2023-02-28T10:22:36.459Z,101620.41
2023-02-28T10:25:17.750Z,101625.41
2023-02-28T10:27:46.508Z,101609.09
2023-02-28T10:30:16.441Z,101616.06
2023-02-28T10:32:51.297Z,101605.53
2023-02-28T10:35:21.514Z,101606.06
2023-02-28T10:37:53.426Z,101596.78
2023-02-28T10:40:32.540Z,101589.47
2023-02-28T10:43:02.392Z,101594.88
2023-02-28T10:45:33.021Z,101586.63
2023-02-28T10:48:05.419Z,101594.53
2023-02-28T10:50:44.338Z,101586.22
2023-02-28T10:53:44.721Z,101589.53
2023-02-28T10:56:24.044Z,101587.66
2023-02-28T10:58:58.309Z,101574.84
2023-02-28T11:01:36.159Z,101583.00
2023-02-28T11:04:04.636Z,101571.00
2023-02-28T11:06:35.234Z,101567.84
2023-02-28T11:09:08.164Z,101563.59
2023-02-28T11:11:45.674Z,101558.59
2023-02-28T11:14:23.219Z,101547.81
2023-02-28T11:16:52.846Z,101555.34
2023-02-28T11:19:24.933Z,101562.34
2023-02-28T11:21:57.858Z,101559.16
2023-02-28T11:24:30.201Z,101562.75
2023-02-28T11:26:59.303Z,101559.91
2023-02-28T11:29:30.044Z,101560.16
2023-02-28T11:32:15.726Z,101554.25
2023-02-28T11:34:45.365Z,101545.81
2023-02-28T11:37:17.053Z,101539.78
2023-02-28T11:39:47.606Z,101548.22
2023-02-28T11:42:44.835Z,101544.81
2023-02-28T11:45:29.395Z,101545.59
2023-02-28T11:48:06.591Z,101543.03
2023-02-28T11:50:50.350Z,101542.94
2023-02-28T11:53:31.148Z,101535.91
2023-02-28T11:56:08.673Z,101535.16
2023-02-28T11:58:48.537Z,101531.66
2023-02-28T12:01:43.421Z,101528.59
2023-02-28T12:04:26.597Z,101517.81
2023-02-28T12:07:00.122Z,101518.41
2023-02-28T12:09:46.294Z,101516.78
2023-02-28T12:12:26.596Z,101502.09
2023-02-28T12:15:18.498Z,101512.09
2023-02-28T12:18:07.010Z,101523.19
2023-02-28T12:20:40.316Z,101535.31
2023-02-28T12:23:29.765Z,101532.25
2023-02-28T12:26:12.340Z,101527.41
2023-02-28T12:28:47.480Z,101534.50
2023-02-28T12:31:24.046Z,101523.81
2023-02-28T12:33:55.063Z,101532.19
2023-02-28T12:36:25.037Z,101537.47
2023-02-28T12:38:58.124Z,101541.50
2023-02-28T12:41:43.577Z,101538.69
2023-02-28T12:44:20.207Z,101531.88
2023-02-28T12:46:51.735Z,101539.03
2023-02-28T12:49:24.173Z,101524.53
2023-02-28T12:51:53.948Z,101527.59
2023-02-28T12:54:28.377Z,101521.88
2023-02-28T12:57:05.973Z,101522.69
2023-02-28T12:59:41.455Z,101527.78
2023-02-28T13:02:36.229Z,101525.91
2023-02-28T13:05:27.594Z,101535.06
2023-02-28T13:08:16.212Z,101532.91
2023-02-28T13:10:46.482Z,101531.38
2023-02-28T13:13:20.149Z,101522.59
2023-02-28T13:16:10.445Z,101524.19
2023-02-28T13:18:41.524Z,101527.28
2023-02-28T13:21:25.442Z,101541.44
2023-02-28T13:24:07.182Z,101524.22
2023-02-28T13:27:15.440Z,101540.00
2023-02-28T13:29:45.559Z,101546.56
2023-02-28T13:32:39.796Z,101531.59
2023-02-28T13:35:46.314Z,101527.41
2023-02-28T13:38:43.122Z,101528.13
2023-02-28T13:41:53.493Z,101533.59
2023-02-28T13:44:24.755Z,101543.19
2023-02-28T13:47:30.194Z,101526.16
2023-02-28T13:50:30.958Z,101534.25
2023-02-28T13:53:36.921Z,101526.28
2023-02-28T13:56:18.014Z,101525.28
2023-02-28T13:58:56.410Z,101520.47
2023-02-28T14:01:34.853Z,101523.69
2023-02-28T14:04:28.236Z,101514.44
2023-02-28T14:06:59.510Z,101505.81
2023-02-28T14:09:31.234Z,101521.47
2023-02-28T14:12:21.452Z,101506.47
2023-02-28T14:14:58.059Z,101512.25
2023-02-28T14:17:28.166Z,101508.63
2023-02-28T14:19:56.898Z,101510.44
2023-02-28T14:22:49.720Z,101518.28
2023-02-28T14:25:26.419Z,101507.97
2023-02-28T14:28:07.052Z,101512.88
2023-02-28T14:31:12.673Z,101517.81
2023-02-28T14:33:59.873Z,101504.16
2023-02-28T14:36:32.935Z,101505.63
2023-02-28T14:39:08.046Z,101512.06
2023-02-28T14:41:38.439Z,101509.50
2023-02-28T14:44:17.772Z,101511.59
2023-02-28T14:46:47.866Z,101512.31
2023-02-28T14:49:20.472Z,101513.53
2023-02-28T14:51:49.475Z,101525.66
2023-02-28T14:54:25.110Z,101515.88
2023-02-28T14:56:56.408Z,101531.28
2023-02-28T14:59:30.955Z,101522.97
2023-02-28T15:02:19.396Z,101509.00
2023-02-28T15:04:56.176Z,101518.28
2023-02-28T15:07:29.561Z,101535.25
2023-02-28T15:10:19.374Z,101520.28
2023-02-28T15:12:55.011Z,101522.81
2023-02-28T15:15:31.941Z,101513.09
2023-02-28T15:18:10.893Z,101514.84
2023-02-28T15:20:41.690Z,101516.16
2023-02-28T15:23:10.928Z,101517.34
2023-02-28T15:25:42.434Z,101513.97
2023-02-28T15:28:17.449Z,101527.13
2023-02-28T15:30:58.529Z,101532.41
2023-02-28T15:33:28.983Z,101516.00
2023-02-28T15:36:15.856Z,101514.75
2023-02-28T15:38:46.056Z,101532.06
2023-02-28T15:41:28.412Z,101529.66
2023-02-28T15:44:32.987Z,101529.38
2023-02-28T15:47:03.766Z,101540.44
2023-02-28T15:49:44.599Z,101543.81
2023-02-28T15:52:17.865Z,101540.38
2023-02-28T15:54:48.303Z,101543.50
2023-02-28T15:57:21.893Z,101541.22
2023-02-28T15:59:55.796Z,101552.38
2023-02-28T16:02:32.924Z,101554.25
2023-02-28T16:05:04.877Z,101558.47
2023-02-28T16:07:33.159Z,101578.78
2023-02-28T16:10:01.984Z,101570.59
2023-02-28T16:12:34.102Z,101571.19
2023-02-28T16:15:05.727Z,101567.34
2023-02-28T16:17:38.079Z,101561.81
2023-02-28T16:20:15.967Z,101575.78
2023-02-28T16:22:45.015Z,101572.47
2023-02-28T16:25:15.065Z,101588.75
2023-02-28T16:27:46.161Z,101578.22
2023-02-28T16:30:22.254Z,101585.63
2023-02-28T16:32:51.104Z,101586.66
2023-02-28T16:35:20.252Z,101591.47
2023-02-28T16:37:48.959Z,101595.84
2023-02-28T16:40:19.137Z,101584.31
2023-02-28T16:42:50.941Z,101588.97
2023-02-28T16:45:26.726Z,101575.00
2023-02-28T16:47:55.217Z,101582.59
2023-02-28T16:50:25.668Z,101584.78
2023-02-28T16:52:55.501Z,101586.56
2023-02-28T16:55:24.926Z,101582.03
2023-02-28T16:57:56.902Z,101577.03
2023-02-28T17:00:26.772Z,101585.63
2023-02-28T17:02:55.491Z,101592.19
2023-02-28T17:05:24.490Z,101582.50
2023-02-28T17:07:53.189Z,101573.22
2023-02-28T17:10:23.737Z,101577.66
2023-02-28T17:12:53.713Z,101579.72
2023-02-28T17:15:25.007Z,101581.25
2023-02-28T17:17:53.783Z,101586.41
2023-02-28T17:20:24.656Z,101582.03
2023-02-28T17:22:53.672Z,101576.94
2023-02-28T17:25:22.862Z,101580.31
2023-02-28T17:27:52.413Z,101581.56
2023-02-28T17:30:22.752Z,101579.47
2023-02-28T17:32:52.660Z,101586.09
2023-02-28T17:35:21.118Z,101577.06
2023-02-28T17:37:49.702Z,101571.53
2023-02-28T17:40:20.334Z,101576.25
2023-02-28T17:42:48.791Z,101579.16
2023-02-28T17:45:18.000Z,101586.78
2023-02-28T17:47:50.089Z,101581.25
2023-02-28T17:50:21.902Z,101583.53
2023-02-28T17:52:51.509Z,101575.94
2023-02-28T17:55:20.349Z,101581.25
2023-02-28T17:57:48.756Z,101583.66
2023-02-28T18:00:19.080Z,101578.00
2023-02-28T18:02:47.507Z,101580.41
2023-02-28T18:05:15.924Z,101589.53
2023-02-28T18:07:46.022Z,101581.47
2023-02-28T18:10:20.376Z,101580.06
2023-02-28T18:12:49.556Z,101591.81
2023-02-28T18:15:18.758Z,101587.78
2023-02-28T18:17:47.167Z,101589.16
2023-02-28T18:20:15.697Z,101594.94
2023-02-28T18:22:45.486Z,101596.69
2023-02-28T18:25:17.154Z,101590.00
2023-02-28T18:27:54.503Z,101590.22
2023-02-28T18:30:23.283Z,101586.41
2023-02-28T18:32:51.650Z,101588.38
2023-02-28T18:35:34.963Z,101592.63
2023-02-28T18:38:08.966Z,101590.31
2023-02-28T18:40:38.126Z,101587.56
2023-02-28T18:43:06.805Z,101588.47
2023-02-28T18:45:38.688Z,101589.72
2023-02-28T18:48:07.508Z,101586.63
2023-02-28T18:50:38.485Z,101586.41
2023-02-28T18:53:08.205Z,101590.81
2023-02-28T18:55:38.992Z,101577.91
2023-02-28T18:58:07.418Z,101585.88
2023-02-28T19:00:36.303Z,101587.69
2023-02-28T19:03:07.730Z,101583.44
2023-02-28T19:05:36.107Z,101593.38
2023-02-28T19:08:05.083Z,101600.16
2023-02-28T19:10:34.861Z,101593.59
2023-02-28T19:13:04.811Z,101606.72
2023-02-28T19:15:33.336Z,101596.00
2023-02-28T19:18:01.704Z,101600.28
2023-02-28T19:20:30.201Z,101600.53
2023-02-28T19:23:00.471Z,101588.75
2023-02-28T19:25:29.170Z,101587.50
2023-02-28T19:27:59.113Z,101580.09
2023-02-28T19:30:27.494Z,101584.47
2023-02-28T19:32:55.886Z,101597.03
2023-02-28T19:35:24.282Z,101580.34
2023-02-28T19:37:53.509Z,101599.25
2023-02-28T19:40:21.944Z,101582.28
2023-02-28T19:42:51.227Z,101588.19
2023-02-28T19:45:23.451Z,101586.78
2023-02-28T19:47:51.884Z,101591.63
2023-02-28T19:50:20.350Z,101587.50
2023-02-28T19:52:49.629Z,101592.81
2023-02-28T19:55:18.951Z,101585.88
2023-02-28T19:57:47.626Z,101588.84
2023-02-28T20:00:17.143Z,101587.81
2023-02-28T20:02:46.891Z,101580.09
2023-02-28T20:05:15.258Z,101565.56
2023-02-28T20:07:43.860Z,101567.31
2023-02-28T20:10:13.598Z,101549.19
2023-02-28T20:12:41.919Z,101548.81
2023-02-28T20:15:11.398Z,101554.59
2023-02-28T20:17:42.027Z,101548.25
2023-02-28T20:20:13.252Z,101547.00
2023-02-28T20:22:45.226Z,101546.66
2023-02-28T20:25:13.604Z,101549.28
2023-02-28T20:27:42.039Z,101543.19
2023-02-28T20:30:11.797Z,101533.38
2023-02-28T20:32:40.274Z,101528.78
2023-02-28T20:35:11.776Z,101529.56
2023-02-28T20:37:42.241Z,101520.13
2023-02-28T20:40:11.868Z,101522.41
2023-02-28T20:42:40.409Z,101523.59
2023-02-28T20:45:10.287Z,101519.56
2023-02-28T20:47:38.698Z,101519.78
2023-02-28T20:50:08.185Z,101515.97
2023-02-28T20:52:36.635Z,101517.00
2023-02-28T20:55:07.605Z,101514.25
2023-02-28T20:57:36.024Z,101502.84
2023-02-28T21:00:05.095Z,101515.63
2023-02-28T21:02:35.649Z,101510.22
2023-02-28T21:05:04.583Z,101495.13
2023-02-28T21:07:33.033Z,101493.97
2023-02-28T21:10:06.325Z,101489.91
2023-02-28T21:12:35.820Z,101490.28
2023-02-28T21:15:04.324Z,101495.47
2023-02-28T21:17:32.767Z,101485.78
2023-02-28T21:20:01.115Z,101490.03
2023-02-28T21:22:29.462Z,101487.03
2023-02-28T21:24:57.867Z,101490.59
2023-02-28T21:27:28.719Z,101483.22
2023-02-28T21:29:57.077Z,101482.88
2023-02-28T21:32:25.459Z,101476.53
2023-02-28T21:35:01.137Z,101477.44
2023-02-28T21:37:29.573Z,101480.31
2023-02-28T21:39:57.904Z,101488.75
2023-02-28T21:42:27.627Z,101482.09
2023-02-28T21:44:57.710Z,101477.66
2023-02-28T21:47:26.133Z,101474.81
2023-02-28T21:49:54.569Z,101483.59
2023-02-28T21:52:22.955Z,101488.88
2023-02-28T21:54:51.311Z,101485.06
2023-02-28T21:57:19.684Z,101481.25
2023-02-28T21:59:49.766Z,101481.03
2023-02-28T22:02:19.013Z,101484.50
2023-02-28T22:04:47.428Z,101495.00
2023-02-28T22:07:18.294Z,101484.50
2023-02-28T22:10:26.835Z,101484.16
2023-02-28T22:12:55.390Z,101475.94
2023-02-28T22:15:25.108Z,101473.31
2023-02-28T22:17:53.546Z,101472.84
2023-02-28T22:20:21.874Z,101470.19
2023-02-28T22:22:50.216Z,101470.09
2023-02-28T22:25:19.294Z,101464.88
2023-02-28T22:27:47.839Z,101463.38
2023-02-28T22:30:16.897Z,101456.34
2023-02-28T22:32:46.732Z,101459.34
2023-02-28T22:35:15.260Z,101450.84
2023-02-28T22:37:43.658Z,101460.88
2023-02-28T22:40:13.588Z,101460.63
2023-02-28T22:42:41.978Z,101462.38
2023-02-28T22:45:11.077Z,101477.81
2023-02-28T22:47:39.398Z,101467.91
2023-02-28T22:50:10.763Z,101464.78
2023-02-28T22:52:41.452Z,101468.59
2023-02-28T22:55:11.215Z,101465.25
2023-02-28T22:57:39.605Z,101476.78
2023-02-28T23:00:15.612Z,101457.84
2023-02-28T23:02:44.270Z,101472.38
2023-02-28T23:05:14.960Z,101460.50
2023-02-28T23:07:44.067Z,101452.31
2023-02-28T23:10:15.441Z,101456.25
2023-02-28T23:12:50.563Z,101447.25
2023-02-28T23:15:19.702Z,101460.19
2023-02-28T23:17:48.984Z,101453.59
2023-02-28T23:20:21.377Z,101461.09
2023-02-28T23:22:50.730Z,101465.81
2023-02-28T23:25:20.341Z,101469.84
2023-02-28T23:27:49.094Z,101473.91
2023-02-28T23:30:18.262Z,101470.19
2023-02-28T23:32:46.732Z,101462.00
2023-02-28T23:35:15.070Z,101461.03
2023-02-28T23:37:44.836Z,101469.94
2023-02-28T23:40:14.147Z,101459.56
2023-02-28T23:42:42.624Z,101454.25
2023-02-28T23:45:11.915Z,101447.53
2023-02-28T23:47:40.301Z,101439.72
2023-02-28T23:50:09.266Z,101434.91
2023-02-28T23:52:37.933Z,101427.75
2023-02-28T23:55:08.798Z,101419.22
2023-02-28T23:57:37.191Z,101420.38
